sensor_id;sensor_type;location;lat;lon;timestamp;temperature;humidity
19180;DHT22;9722;48.754;8.868;2024-02-26T00:00:15;4.70;85.90
19180;DHT22;9722;48.754;8.868;2024-02-26T00:03:36;4.70;86.20
19180;DHT22;9722;48.754;8.868;2024-02-26T00:06:56;4.70;86.80
19180;DHT22;9722;48.754;8.868;2024-02-26T00:10:18;4.70;87.00
19180;DHT22;9722;48.754;8.868;2024-02-26T00:13:39;4.80;87.30
19180;DHT22;9722;48.754;8.868;2024-02-26T00:17:00;4.80;87.40
19180;DHT22;9722;48.754;8.868;2024-02-26T00:20:21;4.80;87.40
19180;DHT22;9722;48.754;8.868;2024-02-26T00:23:41;4.90;87.60
19180;DHT22;9722;48.754;8.868;2024-02-26T00:27:02;4.90;87.50
19180;DHT22;9722;48.754;8.868;2024-02-26T00:30:22;5.00;87.70
19180;DHT22;9722;48.754;8.868;2024-02-26T00:33:43;5.00;87.60
19180;DHT22;9722;48.754;8.868;2024-02-26T00:37:04;5.10;87.70
19180;DHT22;9722;48.754;8.868;2024-02-26T00:40:24;5.10;87.70
19180;DHT22;9722;48.754;8.868;2024-02-26T00:43:45;5.10;87.70
19180;DHT22;9722;48.754;8.868;2024-02-26T00:47:05;5.30;88.00
19180;DHT22;9722;48.754;8.868;2024-02-26T00:50:26;5.30;88.50
19180;DHT22;9722;48.754;8.868;2024-02-26T00:53:46;5.30;88.90
19180;DHT22;9722;48.754;8.868;2024-02-26T00:57:07;5.40;88.90
19180;DHT22;9722;48.754;8.868;2024-02-26T01:00:27;5.40;88.70
19180;DHT22;9722;48.754;8.868;2024-02-26T01:03:48;5.50;88.60
19180;DHT22;9722;48.754;8.868;2024-02-26T01:07:09;5.50;88.60
19180;DHT22;9722;48.754;8.868;2024-02-26T01:10:29;5.50;88.90
19180;DHT22;9722;48.754;8.868;2024-02-26T01:13:50;5.60;89.20
19180;DHT22;9722;48.754;8.868;2024-02-26T01:17:16;5.60;89.60
19180;DHT22;9722;48.754;8.868;2024-02-26T01:20:37;5.60;90.00
19180;DHT22;9722;48.754;8.868;2024-02-26T01:23:57;5.70;90.10
19180;DHT22;9722;48.754;8.868;2024-02-26T01:27:18;5.70;90.10
19180;DHT22;9722;48.754;8.868;2024-02-26T01:30:38;5.80;90.30
19180;DHT22;9722;48.754;8.868;2024-02-26T01:33:58;5.80;90.50
19180;DHT22;9722;48.754;8.868;2024-02-26T01:37:19;5.80;90.50
19180;DHT22;9722;48.754;8.868;2024-02-26T01:40:39;5.90;90.30
19180;DHT22;9722;48.754;8.868;2024-02-26T01:44:00;5.90;90.30
19180;DHT22;9722;48.754;8.868;2024-02-26T01:47:20;5.90;90.10
19180;DHT22;9722;48.754;8.868;2024-02-26T01:50:41;6.00;90.10
19180;DHT22;9722;48.754;8.868;2024-02-26T01:54:03;6.00;90.00
19180;DHT22;9722;48.754;8.868;2024-02-26T01:57:23;6.00;90.00
19180;DHT22;9722;48.754;8.868;2024-02-26T02:00:44;6.00;90.00
19180;DHT22;9722;48.754;8.868;2024-02-26T02:04:05;6.10;90.00
19180;DHT22;9722;48.754;8.868;2024-02-26T02:07:26;6.10;89.90
19180;DHT22;9722;48.754;8.868;2024-02-26T02:10:46;6.10;90.00
19180;DHT22;9722;48.754;8.868;2024-02-26T02:14:09;6.20;89.80
19180;DHT22;9722;48.754;8.868;2024-02-26T02:17:30;6.20;89.60
19180;DHT22;9722;48.754;8.868;2024-02-26T02:20:51;6.30;89.40
19180;DHT22;9722;48.754;8.868;2024-02-26T02:24:13;6.40;89.10
19180;DHT22;9722;48.754;8.868;2024-02-26T02:27:34;6.40;88.90
19180;DHT22;9722;48.754;8.868;2024-02-26T02:30:55;6.40;89.10
19180;DHT22;9722;48.754;8.868;2024-02-26T02:34:16;6.50;89.20
19180;DHT22;9722;48.754;8.868;2024-02-26T02:37:37;6.60;89.20
19180;DHT22;9722;48.754;8.868;2024-02-26T02:40:57;6.70;88.80
19180;DHT22;9722;48.754;8.868;2024-02-26T02:44:18;6.80;88.30
19180;DHT22;9722;48.754;8.868;2024-02-26T02:47:38;6.90;88.20
19180;DHT22;9722;48.754;8.868;2024-02-26T02:50:59;7.00;88.60
19180;DHT22;9722;48.754;8.868;2024-02-26T02:54:20;7.10;89.40
19180;DHT22;9722;48.754;8.868;2024-02-26T02:57:40;7.10;89.70
19180;DHT22;9722;48.754;8.868;2024-02-26T03:01:01;7.10;89.70
19180;DHT22;9722;48.754;8.868;2024-02-26T03:04:22;7.20;89.90
19180;DHT22;9722;48.754;8.868;2024-02-26T03:07:42;7.20;89.90
19180;DHT22;9722;48.754;8.868;2024-02-26T03:11:03;7.20;90.20
19180;DHT22;9722;48.754;8.868;2024-02-26T03:14:24;7.10;90.30
19180;DHT22;9722;48.754;8.868;2024-02-26T03:17:45;7.10;90.80
19180;DHT22;9722;48.754;8.868;2024-02-26T03:21:06;7.10;91.10
19180;DHT22;9722;48.754;8.868;2024-02-26T03:24:27;7.00;91.50
19180;DHT22;9722;48.754;8.868;2024-02-26T03:27:47;7.00;91.80
19180;DHT22;9722;48.754;8.868;2024-02-26T03:31:08;7.00;92.10
19180;DHT22;9722;48.754;8.868;2024-02-26T03:34:28;7.00;92.30
19180;DHT22;9722;48.754;8.868;2024-02-26T03:37:50;7.00;92.50
19180;DHT22;9722;48.754;8.868;2024-02-26T03:41:12;7.00;92.60
19180;DHT22;9722;48.754;8.868;2024-02-26T03:44:32;7.00;92.60
19180;DHT22;9722;48.754;8.868;2024-02-26T03:47:53;7.10;92.80
19180;DHT22;9722;48.754;8.868;2024-02-26T03:51:13;7.10;92.90
19180;DHT22;9722;48.754;8.868;2024-02-26T03:54:34;7.10;92.90
19180;DHT22;9722;48.754;8.868;2024-02-26T03:57:54;7.10;92.90
19180;DHT22;9722;48.754;8.868;2024-02-26T04:01:14;7.10;93.20
19180;DHT22;9722;48.754;8.868;2024-02-26T04:04:35;7.10;93.50
19180;DHT22;9722;48.754;8.868;2024-02-26T04:07:56;7.00;93.70
19180;DHT22;9722;48.754;8.868;2024-02-26T04:11:16;7.00;94.00
19180;DHT22;9722;48.754;8.868;2024-02-26T04:14:39;6.90;94.30
19180;DHT22;9722;48.754;8.868;2024-02-26T04:17:59;6.80;94.70
19180;DHT22;9722;48.754;8.868;2024-02-26T04:21:20;6.80;94.90
19180;DHT22;9722;48.754;8.868;2024-02-26T04:24:40;6.70;95.30
19180;DHT22;9722;48.754;8.868;2024-02-26T04:28:01;6.70;95.60
19180;DHT22;9722;48.754;8.868;2024-02-26T04:31:21;6.60;95.70
19180;DHT22;9722;48.754;8.868;2024-02-26T04:34:42;6.60;95.80
19180;DHT22;9722;48.754;8.868;2024-02-26T04:38:02;6.60;95.90
19180;DHT22;9722;48.754;8.868;2024-02-26T04:41:23;6.70;95.90
19180;DHT22;9722;48.754;8.868;2024-02-26T04:44:43;6.70;96.30
19180;DHT22;9722;48.754;8.868;2024-02-26T04:48:04;6.70;95.90
19180;DHT22;9722;48.754;8.868;2024-02-26T04:51:25;6.70;96.00
19180;DHT22;9722;48.754;8.868;2024-02-26T04:54:45;6.70;96.10
19180;DHT22;9722;48.754;8.868;2024-02-26T04:58:06;6.70;96.30
19180;DHT22;9722;48.754;8.868;2024-02-26T05:01:26;6.60;96.60
19180;DHT22;9722;48.754;8.868;2024-02-26T05:04:47;6.60;96.80
19180;DHT22;9722;48.754;8.868;2024-02-26T05:08:07;6.60;97.10
19180;DHT22;9722;48.754;8.868;2024-02-26T05:11:28;6.60;97.40
19180;DHT22;9722;48.754;8.868;2024-02-26T05:14:48;6.50;97.50
19180;DHT22;9722;48.754;8.868;2024-02-26T05:18:09;6.50;97.70
19180;DHT22;9722;48.754;8.868;2024-02-26T05:21:29;6.50;97.80
19180;DHT22;9722;48.754;8.868;2024-02-26T05:24:50;6.50;97.90
19180;DHT22;9722;48.754;8.868;2024-02-26T05:28:11;6.50;98.00
19180;DHT22;9722;48.754;8.868;2024-02-26T05:31:32;6.50;98.30
19180;DHT22;9722;48.754;8.868;2024-02-26T05:34:52;6.50;98.30
19180;DHT22;9722;48.754;8.868;2024-02-26T05:38:13;6.50;98.50
19180;DHT22;9722;48.754;8.868;2024-02-26T05:41:34;6.50;98.60
19180;DHT22;9722;48.754;8.868;2024-02-26T05:44:54;6.50;98.70
19180;DHT22;9722;48.754;8.868;2024-02-26T05:48:15;6.50;98.80
19180;DHT22;9722;48.754;8.868;2024-02-26T05:51:35;6.50;98.80
19180;DHT22;9722;48.754;8.868;2024-02-26T05:54:55;6.50;98.90
19180;DHT22;9722;48.754;8.868;2024-02-26T05:58:16;6.50;99.00
19180;DHT22;9722;48.754;8.868;2024-02-26T06:01:36;6.50;99.20
19180;DHT22;9722;48.754;8.868;2024-02-26T06:04:57;6.50;99.50
19180;DHT22;9722;48.754;8.868;2024-02-26T06:08:18;6.50;99.60
19180;DHT22;9722;48.754;8.868;2024-02-26T06:11:39;6.40;99.80
19180;DHT22;9722;48.754;8.868;2024-02-26T06:15:00;6.40;99.90
19180;DHT22;9722;48.754;8.868;2024-02-26T06:18:21;6.40;99.90
19180;DHT22;9722;48.754;8.868;2024-02-26T06:21:42;6.50;99.90
19180;DHT22;9722;48.754;8.868;2024-02-26T06:25:02;6.50;99.90
19180;DHT22;9722;48.754;8.868;2024-02-26T06:28:23;6.50;99.90
19180;DHT22;9722;48.754;8.868;2024-02-26T06:31:43;6.50;99.90
19180;DHT22;9722;48.754;8.868;2024-02-26T06:35:04;6.50;99.90
19180;DHT22;9722;48.754;8.868;2024-02-26T06:38:29;6.40;99.90
19180;DHT22;9722;48.754;8.868;2024-02-26T06:41:49;6.40;99.90
19180;DHT22;9722;48.754;8.868;2024-02-26T06:45:10;6.40;99.90
19180;DHT22;9722;48.754;8.868;2024-02-26T06:48:30;6.40;99.90
19180;DHT22;9722;48.754;8.868;2024-02-26T06:51:51;6.40;99.90
19180;DHT22;9722;48.754;8.868;2024-02-26T06:55:12;6.40;99.90
19180;DHT22;9722;48.754;8.868;2024-02-26T06:58:33;6.40;99.90
19180;DHT22;9722;48.754;8.868;2024-02-26T07:01:54;6.50;99.90
19180;DHT22;9722;48.754;8.868;2024-02-26T07:05:15;6.50;99.90
19180;DHT22;9722;48.754;8.868;2024-02-26T07:08:35;6.60;99.90
19180;DHT22;9722;48.754;8.868;2024-02-26T07:11:56;6.60;99.90
19180;DHT22;9722;48.754;8.868;2024-02-26T07:15:17;6.70;99.90
19180;DHT22;9722;48.754;8.868;2024-02-26T07:18:39;6.80;99.90
19180;DHT22;9722;48.754;8.868;2024-02-26T07:22:00;6.80;99.90
19180;DHT22;9722;48.754;8.868;2024-02-26T07:25:23;6.90;99.90
19180;DHT22;9722;48.754;8.868;2024-02-26T07:28:44;7.00;99.90
19180;DHT22;9722;48.754;8.868;2024-02-26T07:32:05;7.00;99.90
19180;DHT22;9722;48.754;8.868;2024-02-26T07:35:26;7.00;99.90
19180;DHT22;9722;48.754;8.868;2024-02-26T07:38:47;7.00;99.90
19180;DHT22;9722;48.754;8.868;2024-02-26T07:42:08;7.10;99.90
19180;DHT22;9722;48.754;8.868;2024-02-26T07:45:28;7.10;99.90
19180;DHT22;9722;48.754;8.868;2024-02-26T07:48:49;7.20;99.90
19180;DHT22;9722;48.754;8.868;2024-02-26T07:52:10;7.20;99.90
19180;DHT22;9722;48.754;8.868;2024-02-26T07:55:30;7.30;99.90
19180;DHT22;9722;48.754;8.868;2024-02-26T07:58:51;7.40;99.90
19180;DHT22;9722;48.754;8.868;2024-02-26T08:02:11;7.50;99.90
19180;DHT22;9722;48.754;8.868;2024-02-26T08:05:32;7.50;99.90
19180;DHT22;9722;48.754;8.868;2024-02-26T08:08:52;7.60;99.90
19180;DHT22;9722;48.754;8.868;2024-02-26T08:12:13;7.70;99.90
19180;DHT22;9722;48.754;8.868;2024-02-26T08:15:34;7.80;99.90
19180;DHT22;9722;48.754;8.868;2024-02-26T08:18:55;7.90;99.90
19180;DHT22;9722;48.754;8.868;2024-02-26T08:22:16;8.10;99.90
19180;DHT22;9722;48.754;8.868;2024-02-26T08:25:37;8.30;99.90
19180;DHT22;9722;48.754;8.868;2024-02-26T08:28:58;8.30;99.90
19180;DHT22;9722;48.754;8.868;2024-02-26T08:32:18;8.40;99.90
19180;DHT22;9722;48.754;8.868;2024-02-26T08:35:39;8.50;99.90
19180;DHT22;9722;48.754;8.868;2024-02-26T08:39:00;8.50;99.90
19180;DHT22;9722;48.754;8.868;2024-02-26T08:42:21;8.60;99.90
19180;DHT22;9722;48.754;8.868;2024-02-26T08:45:43;8.60;99.90
19180;DHT22;9722;48.754;8.868;2024-02-26T08:49:04;8.60;99.90
19180;DHT22;9722;48.754;8.868;2024-02-26T08:52:24;8.80;99.90
19180;DHT22;9722;48.754;8.868;2024-02-26T08:55:45;8.80;99.90
19180;DHT22;9722;48.754;8.868;2024-02-26T08:59:05;8.90;99.90
19180;DHT22;9722;48.754;8.868;2024-02-26T09:02:26;9.00;99.90
19180;DHT22;9722;48.754;8.868;2024-02-26T09:05:47;9.00;99.90
19180;DHT22;9722;48.754;8.868;2024-02-26T09:09:07;9.00;99.80
19180;DHT22;9722;48.754;8.868;2024-02-26T09:12:28;9.00;99.70
19180;DHT22;9722;48.754;8.868;2024-02-26T09:15:48;9.20;99.60
19180;DHT22;9722;48.754;8.868;2024-02-26T09:19:09;9.30;99.40
19180;DHT22;9722;48.754;8.868;2024-02-26T09:22:29;9.50;99.50
19180;DHT22;9722;48.754;8.868;2024-02-26T09:25:50;9.70;99.10
19180;DHT22;9722;48.754;8.868;2024-02-26T09:29:10;9.90;98.70
19180;DHT22;9722;48.754;8.868;2024-02-26T09:32:31;10.10;97.70
19180;DHT22;9722;48.754;8.868;2024-02-26T09:35:52;10.30;97.10
19180;DHT22;9722;48.754;8.868;2024-02-26T09:39:12;10.40;96.50
19180;DHT22;9722;48.754;8.868;2024-02-26T09:42:35;10.40;96.10
19180;DHT22;9722;48.754;8.868;2024-02-26T09:45:56;10.50;95.60
19180;DHT22;9722;48.754;8.868;2024-02-26T09:49:17;10.60;95.30
19180;DHT22;9722;48.754;8.868;2024-02-26T09:52:41;10.90;94.50
19180;DHT22;9722;48.754;8.868;2024-02-26T09:56:02;11.30;93.90
19180;DHT22;9722;48.754;8.868;2024-02-26T09:59:23;12.00;93.00
19180;DHT22;9722;48.754;8.868;2024-02-26T10:02:48;12.70;91.70
19180;DHT22;9722;48.754;8.868;2024-02-26T10:06:08;13.60;89.90
19180;DHT22;9722;48.754;8.868;2024-02-26T10:09:30;14.10;84.60
19180;DHT22;9722;48.754;8.868;2024-02-26T10:12:52;14.20;81.00
19180;DHT22;9722;48.754;8.868;2024-02-26T10:16:12;13.80;79.20
19180;DHT22;9722;48.754;8.868;2024-02-26T10:19:33;13.40;79.80
19180;DHT22;9722;48.754;8.868;2024-02-26T10:22:54;13.20;80.10
19180;DHT22;9722;48.754;8.868;2024-02-26T10:26:15;13.10;79.90
19180;DHT22;9722;48.754;8.868;2024-02-26T10:29:35;13.00;79.60
19180;DHT22;9722;48.754;8.868;2024-02-26T10:32:56;13.10;79.60
19180;DHT22;9722;48.754;8.868;2024-02-26T10:36:18;13.30;78.70
19180;DHT22;9722;48.754;8.868;2024-02-26T10:39:38;13.50;77.40
19180;DHT22;9722;48.754;8.868;2024-02-26T10:42:59;13.70;76.60
19180;DHT22;9722;48.754;8.868;2024-02-26T10:46:19;14.00;75.60
19180;DHT22;9722;48.754;8.868;2024-02-26T10:49:46;14.60;72.80
19180;DHT22;9722;48.754;8.868;2024-02-26T10:53:15;15.60;70.40
19180;DHT22;9722;48.754;8.868;2024-02-26T10:56:36;16.50;67.20
19180;DHT22;9722;48.754;8.868;2024-02-26T11:00:01;16.90;64.70
19180;DHT22;9722;48.754;8.868;2024-02-26T11:03:25;17.20;61.60
19180;DHT22;9722;48.754;8.868;2024-02-26T11:06:46;17.30;59.30
19180;DHT22;9722;48.754;8.868;2024-02-26T11:10:09;17.70;58.90
19180;DHT22;9722;48.754;8.868;2024-02-26T11:13:32;18.50;58.30
19180;DHT22;9722;48.754;8.868;2024-02-26T11:16:55;19.30;56.60
19180;DHT22;9722;48.754;8.868;2024-02-26T11:20:17;20.20;55.00
19180;DHT22;9722;48.754;8.868;2024-02-26T11:23:39;20.90;54.30
19180;DHT22;9722;48.754;8.868;2024-02-26T11:27:04;21.40;53.80
19180;DHT22;9722;48.754;8.868;2024-02-26T11:30:26;22.20;51.80
19180;DHT22;9722;48.754;8.868;2024-02-26T11:33:49;22.70;50.50
19180;DHT22;9722;48.754;8.868;2024-02-26T11:40:31;22.80;48.90
19180;DHT22;9722;48.754;8.868;2024-02-26T11:44:01;22.90;48.60
19180;DHT22;9722;48.754;8.868;2024-02-26T11:47:22;23.70;47.20
19180;DHT22;9722;48.754;8.868;2024-02-26T11:50:47;24.60;45.70
19180;DHT22;9722;48.754;8.868;2024-02-26T11:54:08;25.10;45.70
19180;DHT22;9722;48.754;8.868;2024-02-26T11:57:39;25.80;44.00
19180;DHT22;9722;48.754;8.868;2024-02-26T12:01:03;25.40;42.60
19180;DHT22;9722;48.754;8.868;2024-02-26T12:04:27;24.30;43.10
19180;DHT22;9722;48.754;8.868;2024-02-26T12:07:53;23.10;43.50
19180;DHT22;9722;48.754;8.868;2024-02-26T12:11:15;22.00;44.50
19180;DHT22;9722;48.754;8.868;2024-02-26T12:14:40;21.00;45.40
19180;DHT22;9722;48.754;8.868;2024-02-26T12:18:02;20.10;46.10
19180;DHT22;9722;48.754;8.868;2024-02-26T12:21:23;19.20;46.70
19180;DHT22;9722;48.754;8.868;2024-02-26T12:24:44;18.40;47.70
19180;DHT22;9722;48.754;8.868;2024-02-26T12:28:04;17.70;48.60
19180;DHT22;9722;48.754;8.868;2024-02-26T12:31:26;17.20;49.20
19180;DHT22;9722;48.754;8.868;2024-02-26T12:34:48;16.80;50.00
19180;DHT22;9722;48.754;8.868;2024-02-26T12:38:09;16.60;50.30
19180;DHT22;9722;48.754;8.868;2024-02-26T12:41:30;16.50;50.70
19180;DHT22;9722;48.754;8.868;2024-02-26T12:44:52;16.40;51.40
19180;DHT22;9722;48.754;8.868;2024-02-26T12:48:13;16.50;51.50
19180;DHT22;9722;48.754;8.868;2024-02-26T12:51:34;16.50;51.20
19180;DHT22;9722;48.754;8.868;2024-02-26T12:54:55;16.50;50.50
19180;DHT22;9722;48.754;8.868;2024-02-26T12:58:16;16.40;50.50
19180;DHT22;9722;48.754;8.868;2024-02-26T13:01:37;16.50;50.70
19180;DHT22;9722;48.754;8.868;2024-02-26T13:04:58;16.60;50.30
19180;DHT22;9722;48.754;8.868;2024-02-26T13:08:22;16.70;50.20
19180;DHT22;9722;48.754;8.868;2024-02-26T13:11:42;16.90;50.20
19180;DHT22;9722;48.754;8.868;2024-02-26T13:15:04;17.10;50.80
19180;DHT22;9722;48.754;8.868;2024-02-26T13:18:27;17.50;49.90
19180;DHT22;9722;48.754;8.868;2024-02-26T13:21:48;18.20;49.60
19180;DHT22;9722;48.754;8.868;2024-02-26T13:25:09;18.90;48.50
19180;DHT22;9722;48.754;8.868;2024-02-26T13:28:29;19.40;48.40
19180;DHT22;9722;48.754;8.868;2024-02-26T13:32:02;19.70;48.60
19180;DHT22;9722;48.754;8.868;2024-02-26T13:35:23;20.70;48.40
19180;DHT22;9722;48.754;8.868;2024-02-26T13:38:54;22.70;46.90
19180;DHT22;9722;48.754;8.868;2024-02-26T13:42:15;24.80;44.80
19180;DHT22;9722;48.754;8.868;2024-02-26T13:45:37;26.30;42.70
19180;DHT22;9722;48.754;8.868;2024-02-26T13:48:58;26.80;40.90
19180;DHT22;9722;48.754;8.868;2024-02-26T13:52:18;26.00;38.90
19180;DHT22;9722;48.754;8.868;2024-02-26T13:55:41;24.80;40.00
19180;DHT22;9722;48.754;8.868;2024-02-26T13:59:04;24.20;40.70
19180;DHT22;9722;48.754;8.868;2024-02-26T14:02:25;24.20;40.90
19180;DHT22;9722;48.754;8.868;2024-02-26T14:05:46;24.20;40.60
19180;DHT22;9722;48.754;8.868;2024-02-26T14:09:07;24.70;40.50
19180;DHT22;9722;48.754;8.868;2024-02-26T14:12:27;25.40;39.50
19180;DHT22;9722;48.754;8.868;2024-02-26T14:15:48;25.90;38.90
19180;DHT22;9722;48.754;8.868;2024-02-26T14:19:08;26.40;38.70
19180;DHT22;9722;48.754;8.868;2024-02-26T14:22:29;26.90;37.50
19180;DHT22;9722;48.754;8.868;2024-02-26T14:25:50;27.20;36.80
19180;DHT22;9722;48.754;8.868;2024-02-26T14:29:11;27.20;36.40
19180;DHT22;9722;48.754;8.868;2024-02-26T14:32:31;27.30;36.20
19180;DHT22;9722;48.754;8.868;2024-02-26T14:35:56;27.10;35.30
19180;DHT22;9722;48.754;8.868;2024-02-26T14:39:17;26.40;35.70
19180;DHT22;9722;48.754;8.868;2024-02-26T14:42:37;25.70;36.80
19180;DHT22;9722;48.754;8.868;2024-02-26T14:45:58;25.00;37.80
19180;DHT22;9722;48.754;8.868;2024-02-26T14:49:19;24.70;38.40
19180;DHT22;9722;48.754;8.868;2024-02-26T14:52:40;24.10;38.70
19180;DHT22;9722;48.754;8.868;2024-02-26T14:56:00;23.40;39.30
19180;DHT22;9722;48.754;8.868;2024-02-26T14:59:21;22.60;39.90
19180;DHT22;9722;48.754;8.868;2024-02-26T15:02:41;21.70;40.80
19180;DHT22;9722;48.754;8.868;2024-02-26T15:06:02;20.70;41.60
19180;DHT22;9722;48.754;8.868;2024-02-26T15:09:22;19.90;42.80
19180;DHT22;9722;48.754;8.868;2024-02-26T15:12:43;19.10;43.70
19180;DHT22;9722;48.754;8.868;2024-02-26T15:16:04;18.50;44.90
19180;DHT22;9722;48.754;8.868;2024-02-26T15:19:24;18.00;45.70
19180;DHT22;9722;48.754;8.868;2024-02-26T15:22:44;17.50;46.30
19180;DHT22;9722;48.754;8.868;2024-02-26T15:26:06;17.20;47.00
19180;DHT22;9722;48.754;8.868;2024-02-26T15:29:27;16.80;47.60
19180;DHT22;9722;48.754;8.868;2024-02-26T15:32:47;16.50;48.00
19180;DHT22;9722;48.754;8.868;2024-02-26T15:36:08;16.20;48.40
19180;DHT22;9722;48.754;8.868;2024-02-26T15:39:32;16.00;49.20
19180;DHT22;9722;48.754;8.868;2024-02-26T15:42:54;15.80;49.90
19180;DHT22;9722;48.754;8.868;2024-02-26T15:46:14;15.50;50.40
19180;DHT22;9722;48.754;8.868;2024-02-26T15:49:35;15.30;51.00
19180;DHT22;9722;48.754;8.868;2024-02-26T15:52:55;15.10;51.50
19180;DHT22;9722;48.754;8.868;2024-02-26T15:56:16;14.80;51.60
19180;DHT22;9722;48.754;8.868;2024-02-26T15:59:37;14.60;52.30
19180;DHT22;9722;48.754;8.868;2024-02-26T16:02:57;14.40;52.70
19180;DHT22;9722;48.754;8.868;2024-02-26T16:09:50;14.10;53.80
19180;DHT22;9722;48.754;8.868;2024-02-26T16:13:11;13.90;54.10
19180;DHT22;9722;48.754;8.868;2024-02-26T16:16:32;13.70;54.50
19180;DHT22;9722;48.754;8.868;2024-02-26T16:19:54;13.60;54.90
19180;DHT22;9722;48.754;8.868;2024-02-26T16:23:14;13.40;55.20
19180;DHT22;9722;48.754;8.868;2024-02-26T16:26:36;13.30;55.30
19180;DHT22;9722;48.754;8.868;2024-02-26T16:29:56;13.20;55.70
19180;DHT22;9722;48.754;8.868;2024-02-26T16:33:17;13.10;56.10
19180;DHT22;9722;48.754;8.868;2024-02-26T16:36:37;13.00;56.40
19180;DHT22;9722;48.754;8.868;2024-02-26T16:39:58;12.80;56.60
19180;DHT22;9722;48.754;8.868;2024-02-26T16:43:20;12.70;57.00
19180;DHT22;9722;48.754;8.868;2024-02-26T16:46:40;12.60;57.30
19180;DHT22;9722;48.754;8.868;2024-02-26T16:50:01;12.60;57.80
19180;DHT22;9722;48.754;8.868;2024-02-26T16:53:22;12.40;58.00
19180;DHT22;9722;48.754;8.868;2024-02-26T16:56:43;12.40;58.40
19180;DHT22;9722;48.754;8.868;2024-02-26T17:00:04;12.30;58.70
19180;DHT22;9722;48.754;8.868;2024-02-26T17:03:25;12.20;58.80
19180;DHT22;9722;48.754;8.868;2024-02-26T17:06:46;12.20;59.20
19180;DHT22;9722;48.754;8.868;2024-02-26T17:10:07;12.10;59.40
19180;DHT22;9722;48.754;8.868;2024-02-26T17:13:27;12.00;59.70
19180;DHT22;9722;48.754;8.868;2024-02-26T17:16:49;12.00;60.00
19180;DHT22;9722;48.754;8.868;2024-02-26T17:20:10;11.90;60.40
19180;DHT22;9722;48.754;8.868;2024-02-26T17:23:31;11.90;60.70
19180;DHT22;9722;48.754;8.868;2024-02-26T17:26:53;11.80;61.10
19180;DHT22;9722;48.754;8.868;2024-02-26T17:30:14;11.80;62.30
19180;DHT22;9722;48.754;8.868;2024-02-26T17:33:34;11.70;61.90
19180;DHT22;9722;48.754;8.868;2024-02-26T17:36:55;11.60;62.00
19180;DHT22;9722;48.754;8.868;2024-02-26T17:40:16;11.70;62.60
19180;DHT22;9722;48.754;8.868;2024-02-26T17:43:37;11.60;62.80
19180;DHT22;9722;48.754;8.868;2024-02-26T17:46:57;11.50;63.00
19180;DHT22;9722;48.754;8.868;2024-02-26T17:50:18;11.50;63.30
19180;DHT22;9722;48.754;8.868;2024-02-26T17:53:39;11.50;63.50
19180;DHT22;9722;48.754;8.868;2024-02-26T17:57:00;11.40;63.80
19180;DHT22;9722;48.754;8.868;2024-02-26T18:00:20;11.40;63.80
19180;DHT22;9722;48.754;8.868;2024-02-26T18:03:41;11.30;63.80
19180;DHT22;9722;48.754;8.868;2024-02-26T18:07:01;11.30;63.70
19180;DHT22;9722;48.754;8.868;2024-02-26T18:10:24;11.30;63.70
19180;DHT22;9722;48.754;8.868;2024-02-26T18:13:45;11.20;63.70
19180;DHT22;9722;48.754;8.868;2024-02-26T18:17:05;11.20;63.80
19180;DHT22;9722;48.754;8.868;2024-02-26T18:20:26;11.20;63.80
19180;DHT22;9722;48.754;8.868;2024-02-26T18:23:46;11.20;63.80
19180;DHT22;9722;48.754;8.868;2024-02-26T18:27:07;11.10;63.50
19180;DHT22;9722;48.754;8.868;2024-02-26T18:30:27;11.10;63.40
19180;DHT22;9722;48.754;8.868;2024-02-26T18:33:48;11.10;63.30
19180;DHT22;9722;48.754;8.868;2024-02-26T18:37:08;11.00;63.10
19180;DHT22;9722;48.754;8.868;2024-02-26T18:40:29;11.00;63.10
19180;DHT22;9722;48.754;8.868;2024-02-26T18:43:50;11.00;63.10
19180;DHT22;9722;48.754;8.868;2024-02-26T18:47:11;11.00;63.10
19180;DHT22;9722;48.754;8.868;2024-02-26T18:50:32;10.90;63.00
19180;DHT22;9722;48.754;8.868;2024-02-26T18:53:52;10.90;62.90
19180;DHT22;9722;48.754;8.868;2024-02-26T18:57:13;10.90;62.90
19180;DHT22;9722;48.754;8.868;2024-02-26T19:00:34;10.90;63.00
19180;DHT22;9722;48.754;8.868;2024-02-26T19:03:54;10.80;63.00
19180;DHT22;9722;48.754;8.868;2024-02-26T19:07:15;10.80;62.80
19180;DHT22;9722;48.754;8.868;2024-02-26T19:10:35;10.80;62.90
19180;DHT22;9722;48.754;8.868;2024-02-26T19:13:57;10.70;62.80
19180;DHT22;9722;48.754;8.868;2024-02-26T19:17:19;10.70;62.80
19180;DHT22;9722;48.754;8.868;2024-02-26T19:20:40;10.60;62.70
19180;DHT22;9722;48.754;8.868;2024-02-26T19:24:01;10.60;62.80
19180;DHT22;9722;48.754;8.868;2024-02-26T19:27:23;10.50;62.70
19180;DHT22;9722;48.754;8.868;2024-02-26T19:30:43;10.50;62.70
19180;DHT22;9722;48.754;8.868;2024-02-26T19:34:04;10.50;63.00
19180;DHT22;9722;48.754;8.868;2024-02-26T19:37:25;10.40;63.20
19180;DHT22;9722;48.754;8.868;2024-02-26T19:40:45;10.40;63.30
19180;DHT22;9722;48.754;8.868;2024-02-26T19:44:06;10.30;63.40
19180;DHT22;9722;48.754;8.868;2024-02-26T19:47:26;10.40;63.70
19180;DHT22;9722;48.754;8.868;2024-02-26T19:50:47;10.30;63.70
19180;DHT22;9722;48.754;8.868;2024-02-26T19:54:08;10.30;63.90
19180;DHT22;9722;48.754;8.868;2024-02-26T19:57:28;10.30;64.10
19180;DHT22;9722;48.754;8.868;2024-02-26T20:00:49;10.30;64.40
19180;DHT22;9722;48.754;8.868;2024-02-26T20:04:10;10.20;64.40
19180;DHT22;9722;48.754;8.868;2024-02-26T20:07:34;10.20;64.50
19180;DHT22;9722;48.754;8.868;2024-02-26T20:10:54;10.20;64.80
19180;DHT22;9722;48.754;8.868;2024-02-26T20:14:15;10.20;65.00
19180;DHT22;9722;48.754;8.868;2024-02-26T20:17:36;10.10;65.10
19180;DHT22;9722;48.754;8.868;2024-02-26T20:20:57;10.10;65.30
19180;DHT22;9722;48.754;8.868;2024-02-26T20:24:17;10.10;65.60
19180;DHT22;9722;48.754;8.868;2024-02-26T20:27:38;10.00;65.80
19180;DHT22;9722;48.754;8.868;2024-02-26T20:30:59;10.00;66.10
19180;DHT22;9722;48.754;8.868;2024-02-26T20:34:19;10.00;66.20
19180;DHT22;9722;48.754;8.868;2024-02-26T20:37:40;9.90;67.50
19180;DHT22;9722;48.754;8.868;2024-02-26T20:41:02;10.00;66.60
19180;DHT22;9722;48.754;8.868;2024-02-26T20:44:22;9.90;67.90
19180;DHT22;9722;48.754;8.868;2024-02-26T20:47:46;9.90;68.00
19180;DHT22;9722;48.754;8.868;2024-02-26T20:51:08;9.90;68.30
19180;DHT22;9722;48.754;8.868;2024-02-26T20:54:29;9.90;68.50
19180;DHT22;9722;48.754;8.868;2024-02-26T20:57:49;9.90;68.80
19180;DHT22;9722;48.754;8.868;2024-02-26T21:01:10;9.90;69.10
19180;DHT22;9722;48.754;8.868;2024-02-26T21:04:31;9.90;69.30
19180;DHT22;9722;48.754;8.868;2024-02-26T21:07:52;9.90;69.40
19180;DHT22;9722;48.754;8.868;2024-02-26T21:11:13;9.80;69.20
19180;DHT22;9722;48.754;8.868;2024-02-26T21:14:33;9.80;69.70
19180;DHT22;9722;48.754;8.868;2024-02-26T21:17:54;9.80;70.00
19180;DHT22;9722;48.754;8.868;2024-02-26T21:21:14;9.80;70.30
19180;DHT22;9722;48.754;8.868;2024-02-26T21:24:35;9.80;70.50
19180;DHT22;9722;48.754;8.868;2024-02-26T21:27:56;9.70;70.70
19180;DHT22;9722;48.754;8.868;2024-02-26T21:31:19;9.70;70.90
19180;DHT22;9722;48.754;8.868;2024-02-26T21:34:40;9.60;71.10
19180;DHT22;9722;48.754;8.868;2024-02-26T21:38:01;9.60;71.30
19180;DHT22;9722;48.754;8.868;2024-02-26T21:41:22;9.70;71.50
19180;DHT22;9722;48.754;8.868;2024-02-26T21:44:42;9.70;71.70
19180;DHT22;9722;48.754;8.868;2024-02-26T21:48:03;9.70;71.90